Time;durP1;ratioP1;P1;durP2;ratioP2;P2;SDS_P1;SDS_P2;PMS_P1;PMS_P2;Temp;Humidity;BMP_temperature;BMP_pressure;BME280_temperature;BME280_humidity;BME280_pressure;Samples;Min_cycle;Max_cycle;Signal;HPM_P1;HPM_P2
2021/05/08 00:00:01;;;;;;;10.30;6.82;;;;;;;18.08;59.33;99423.78;5028670;28;20033;-22
2021/05/08 00:02:26;;;;;;;11.55;6.38;;;;;;;17.65;60.68;99420.88;5028022;28;20037;-22
2021/05/08 00:04:52;;;;;;;9.40;6.45;;;;;;;17.29;61.30;99412.25;5028311;28;20416;-23
2021/05/08 00:07:17;;;;;;;13.30;7.15;;;;;;;17.22;62.19;99418.78;5028168;28;20056;-22
2021/05/08 00:09:43;;;;;;;13.02;7.35;;;;;;;17.54;61.25;99422.84;5028112;28;20040;-22
2021/05/08 00:12:08;;;;;;;13.15;8.20;;;;;;;17.86;60.33;99416.97;5028282;28;20025;-22
2021/05/08 00:14:34;;;;;;;11.95;7.70;;;;;;;17.71;60.47;99425.16;5027825;28;20026;-22
2021/05/08 00:16:59;;;;;;;11.73;8.05;;;;;;;17.26;62.25;99430.59;5028376;28;20030;-22
2021/05/08 00:19:25;;;;;;;11.43;8.40;;;;;;;17.12;62.41;99418.81;5028009;28;20477;-22
2021/05/08 00:21:53;;;;;;;13.00;7.93;;;;;;;16.86;63.25;99400.09;5027943;28;20041;-22
2021/05/08 00:24:19;;;;;;;10.95;8.02;;;;;;;16.77;64.11;99425.94;5027742;28;20037;-22
2021/05/08 00:26:45;;;;;;;13.65;7.95;;;;;;;17.10;62.74;99421.00;5027881;28;20018;-23
2021/05/08 00:29:10;;;;;;;18.63;8.32;;;;;;;17.43;61.66;99419.44;5028074;28;20067;-22
2021/05/08 00:31:36;;;;;;;12.43;8.13;;;;;;;16.51;64.76;99414.47;5026565;28;20033;-21
2021/05/08 00:34:01;;;;;;;10.73;7.15;;;;;;;16.04;66.17;99418.34;5027906;28;20037;-19
2021/05/08 00:36:27;;;;;;;9.93;6.70;;;;;;;16.14;65.60;99417.50;5027923;28;20026;-22
2021/05/08 00:38:52;;;;;;;9.38;6.22;;;;;;;16.27;65.60;99425.81;5027690;28;20038;-23
2021/05/08 00:41:18;;;;;;;10.70;6.32;;;;;;;16.90;63.74;99437.22;5027877;28;20411;-21
2021/05/08 00:43:43;;;;;;;9.38;6.50;;;;;;;17.21;62.32;99437.91;5027836;28;20029;-22
2021/05/08 00:46:09;;;;;;;9.88;7.25;;;;;;;17.54;61.28;99439.03;5027693;28;20044;-22
2021/05/08 00:48:35;;;;;;;10.00;6.35;;;;;;;16.92;63.25;99413.50;5027320;28;20042;-22
2021/05/08 00:51:00;;;;;;;12.80;7.38;;;;;;;16.78;64.15;99434.84;5026138;28;20061;-22
2021/05/08 00:53:25;;;;;;;9.38;6.40;;;;;;;16.35;64.83;99410.22;5027296;28;20033;-22
2021/05/08 00:55:51;;;;;;;13.57;6.53;;;;;;;16.05;66.34;99425.31;5027612;28;20116;-22
2021/05/08 00:58:18;;;;;;;10.93;7.03;;;;;;;15.72;67.31;99402.44;5027371;28;20033;-22
2021/05/08 01:00:43;;;;;;;12.60;7.50;;;;;;;16.13;66.39;99427.44;5027578;28;20033;-22
2021/05/08 01:03:08;;;;;;;12.77;8.15;;;;;;;16.60;64.28;99422.78;5027241;28;20029;-22
2021/05/08 01:05:35;;;;;;;14.32;9.70;;;;;;;16.94;63.41;99427.50;5031229;28;20052;-21
2021/05/08 01:08:01;;;;;;;13.68;9.63;;;;;;;16.50;63.95;99434.38;5033789;28;20025;-22
2021/05/08 01:10:27;;;;;;;13.77;9.85;;;;;;;16.65;62.88;99436.22;5033874;28;20456;-21
2021/05/08 01:12:52;;;;;;;18.65;11.23;;;;;;;16.48;63.32;99433.84;5034377;28;20669;-20
2021/05/08 01:15:18;;;;;;;18.52;11.68;;;;;;;16.45;63.90;99443.28;5033015;28;20025;-22
2021/05/08 01:17:44;;;;;;;18.45;11.02;;;;;;;16.62;63.28;99431.38;5034346;28;20064;-22
2021/05/08 01:20:10;;;;;;;16.25;10.75;;;;;;;16.32;63.52;99416.91;5016192;28;20064;-22
2021/05/08 01:22:36;;;;;;;15.52;10.27;;;;;;;16.31;64.01;99439.53;5033825;28;20030;-22
2021/05/08 01:25:05;;;;;;;18.02;9.88;;;;;;;16.32;64.22;99432.25;5034078;28;20029;-21
2021/05/08 01:27:30;;;;;;;15.07;9.63;;;;;;;16.34;63.80;99414.75;5033878;28;20025;-22
2021/05/08 01:29:55;;;;;;;14.75;9.90;;;;;;;15.99;64.92;99413.75;5033786;28;20095;-22
2021/05/08 01:32:21;;;;;;;15.40;9.68;;;;;;;15.57;66.39;99425.56;5034076;28;20029;-22
2021/05/08 01:34:46;;;;;;;17.40;10.57;;;;;;;15.78;65.98;99426.41;5033689;28;20026;-22
2021/05/08 01:37:12;;;;;;;16.75;10.07;;;;;;;16.17;64.78;99436.59;5033675;28;20036;-22
2021/05/08 01:39:37;;;;;;;15.93;10.07;;;;;;;16.42;64.01;99448.38;5034019;28;20689;-22
2021/05/08 01:42:03;;;;;;;14.50;9.73;;;;;;;16.41;63.47;99452.19;5034193;28;20032;-21
2021/05/08 01:44:29;;;;;;;11.98;9.60;;;;;;;16.61;62.28;99452.13;5033502;28;20029;-22
2021/05/08 01:46:55;;;;;;;15.15;9.73;;;;;;;16.33;63.13;99436.59;5033694;28;20468;-22
2021/05/08 01:49:20;;;;;;;15.40;9.50;;;;;;;16.71;61.78;99453.16;5033619;28;20057;-22
2021/05/08 01:51:46;;;;;;;16.27;9.23;;;;;;;15.64;64.29;99427.97;5033681;28;20033;-22
2021/05/08 01:54:16;;;;;;;17.13;9.63;;;;;;;15.53;65.85;99445.16;5033488;28;20025;-22
2021/05/08 01:56:42;;;;;;;27.00;9.43;;;;;;;15.67;64.59;99460.50;5033589;28;20037;-22
2021/05/08 01:59:07;;;;;;;12.43;8.73;;;;;;;15.46;64.88;99459.66;5033816;28;20037;-22
2021/05/08 02:01:33;;;;;;;11.95;8.40;;;;;;;15.65;64.49;99443.84;5033609;28;20113;-22
2021/05/08 02:03:58;;;;;;;12.52;8.07;;;;;;;15.78;64.02;99460.56;5033617;28;20049;-20
2021/05/08 02:06:24;;;;;;;12.65;7.75;;;;;;;15.83;63.21;99453.31;5033519;28;20026;-22
2021/05/08 02:08:49;;;;;;;12.15;7.63;;;;;;;15.58;63.83;99466.66;5033796;28;20797;-22
2021/05/08 02:11:15;;;;;;;14.95;8.55;;;;;;;15.91;62.91;99470.75;5033556;28;20037;-22
2021/05/08 02:13:41;;;;;;;13.52;8.20;;;;;;;15.32;64.14;99461.22;5033717;28;20048;-22
2021/05/08 02:16:06;;;;;;;10.07;8.10;;;;;;;14.58;66.86;99460.41;5032140;28;20112;-22
2021/05/08 02:18:32;;;;;;;11.90;8.88;;;;;;;14.53;67.56;99467.59;5029812;28;20037;-22
2021/05/08 02:20:57;;;;;;;16.40;9.60;;;;;;;14.27;67.62;99480.84;5030205;28;20029;-22
2021/05/08 02:23:23;;;;;;;12.93;9.32;;;;;;;14.45;67.00;99472.38;5030446;28;20152;-23
2021/05/08 02:25:48;;;;;;;17.95;8.95;;;;;;;14.82;64.98;99470.72;5030288;28;20037;-23
2021/05/08 02:28:14;;;;;;;13.95;9.07;;;;;;;15.21;63.98;99473.84;5030148;28;20492;-22
2021/05/08 02:30:40;;;;;;;14.50;9.23;;;;;;;15.09;64.77;99475.94;5030135;28;20036;-22
2021/05/08 02:33:06;;;;;;;15.52;10.02;;;;;;;14.77;65.11;99476.06;5029998;28;20037;-21
2021/05/08 02:35:31;;;;;;;12.85;9.07;;;;;;;14.86;64.07;99472.63;5029828;28;20478;-22
2021/05/08 02:37:57;;;;;;;14.40;9.68;;;;;;;14.59;64.68;99471.97;5030156;28;20403;-21
2021/05/08 02:40:24;;;;;;;14.50;8.77;;;;;;;14.68;64.30;99474.97;5029907;28;20037;-20
2021/05/08 02:42:50;;;;;;;14.77;9.63;;;;;;;15.17;63.74;99483.50;5029857;28;20034;-19
2021/05/08 02:45:15;;;;;;;13.75;8.60;;;;;;;14.90;64.82;99480.19;5030225;28;20159;-22
2021/05/08 02:47:42;;;;;;;16.10;8.80;;;;;;;14.32;66.51;99472.81;5030201;28;20072;-23
2021/05/08 02:50:08;;;;;;;14.00;9.60;;;;;;;14.90;65.39;99488.22;5029762;28;20049;-22
2021/05/08 02:52:34;;;;;;;18.40;9.15;;;;;;;14.70;65.85;99516.56;5029781;28;20029;-22
2021/05/08 02:55:00;;;;;;;13.65;9.35;;;;;;;14.58;66.55;99513.25;5029627;28;20044;-22
2021/05/08 02:57:26;;;;;;;16.67;9.50;;;;;;;14.09;68.17;99518.78;5029582;28;20135;-23
2021/05/08 02:59:51;;;;;;;16.92;9.02;;;;;;;14.45;67.25;99533.28;5029603;28;20047;-22
2021/05/08 03:02:17;;;;;;;15.57;9.85;;;;;;;14.22;67.58;99515.66;5029408;28;20402;-22
2021/05/08 03:04:42;;;;;;;18.38;9.43;;;;;;;14.82;65.80;99535.97;5029348;28;20017;-23
2021/05/08 03:07:08;;;;;;;15.00;8.70;;;;;;;14.79;65.74;99547.22;5029572;28;20521;-22
2021/05/08 03:09:33;;;;;;;13.70;8.88;;;;;;;14.39;67.39;99543.16;5029425;28;20025;-22
2021/05/08 03:11:59;;;;;;;16.55;9.20;;;;;;;14.78;66.34;99536.75;5029369;28;20040;-23
2021/05/08 03:14:25;;;;;;;13.15;9.32;;;;;;;15.07;64.72;99553.28;5028994;28;20029;-22
2021/05/08 03:16:50;;;;;;;13.00;9.05;;;;;;;14.75;65.87;99540.75;5029280;28;20037;-22
2021/05/08 03:19:16;;;;;;;12.02;9.05;;;;;;;14.59;66.70;99550.59;5029147;28;20087;-22
2021/05/08 03:21:41;;;;;;;11.73;8.73;;;;;;;15.08;65.02;99562.97;5029185;28;20033;-21
2021/05/08 03:24:07;;;;;;;12.55;8.18;;;;;;;14.56;66.40;99563.69;5029750;28;20033;-20
2021/05/08 03:26:33;;;;;;;13.40;8.43;;;;;;;15.01;65.53;99589.22;5029432;28;20037;-22
2021/05/08 03:28:58;;;;;;;12.95;8.73;;;;;;;14.62;66.23;99592.19;5028991;28;20718;-22
2021/05/08 03:31:24;;;;;;;14.40;9.13;;;;;;;14.71;66.39;99604.09;5028988;28;20079;-22
2021/05/08 03:33:49;;;;;;;18.48;9.40;;;;;;;14.11;67.38;99589.84;5028675;28;20026;-22
2021/05/08 03:36:15;;;;;;;13.95;8.90;;;;;;;14.12;67.55;99596.84;5028769;28;20037;-22
2021/05/08 03:38:40;;;;;;;12.80;8.65;;;;;;;14.26;67.53;99613.31;5029001;28;20485;-22
2021/05/08 03:41:06;;;;;;;21.60;9.82;;;;;;;14.64;66.27;99620.38;5028531;28;20029;-21
2021/05/08 03:43:31;;;;;;;20.42;9.75;;;;;;;14.56;66.40;99642.31;5028215;28;20026;-21
2021/05/08 03:45:57;;;;;;;16.77;8.85;;;;;;;14.69;65.41;99633.06;5029101;28;20033;-23
2021/05/08 03:48:23;;;;;;;16.02;9.15;;;;;;;14.83;65.11;99655.72;5028286;28;20033;-22
2021/05/08 03:50:48;;;;;;;16.63;9.05;;;;;;;14.35;67.43;99643.19;5028680;28;20061;-22
2021/05/08 03:53:14;;;;;;;18.40;9.50;;;;;;;14.61;67.26;99646.94;5028798;28;20112;-22
2021/05/08 03:55:40;;;;;;;14.60;9.15;;;;;;;14.99;66.23;99653.13;5028428;28;20083;-21
2021/05/08 03:58:06;;;;;;;20.63;9.68;;;;;;;14.82;66.28;99646.03;5028531;28;20037;-21
2021/05/08 04:00:31;;;;;;;42.90;11.00;;;;;;;15.18;65.26;99662.41;5028341;28;20412;-19
2021/05/08 04:02:57;;;;;;;16.23;9.45;;;;;;;15.06;66.42;99665.25;5028590;28;20030;-22
2021/05/08 04:05:22;;;;;;;16.20;9.60;;;;;;;15.30;65.69;99664.06;5027423;28;20044;-22
2021/05/08 04:07:48;;;;;;;18.23;10.25;;;;;;;15.30;65.13;99672.13;5028422;28;20091;-22
2021/05/08 04:10:13;;;;;;;11.88;9.02;;;;;;;15.29;65.46;99690.13;5028164;28;20044;-22
2021/05/08 04:12:39;;;;;;;21.30;9.75;;;;;;;15.38;65.36;99687.75;5028322;28;20460;-22
2021/05/08 04:15:05;;;;;;;18.63;10.93;;;;;;;16.03;63.13;99678.38;5028199;28;20040;-22
2021/05/08 04:17:31;;;;;;;15.52;9.98;;;;;;;16.06;63.13;99691.31;5028008;28;20033;-22
2021/05/08 04:19:56;;;;;;;13.50;8.48;;;;;;;16.07;62.82;99692.94;5028199;28;20052;-22
2021/05/08 04:22:22;;;;;;;20.40;9.00;;;;;;;16.47;62.02;99693.31;5028379;28;20041;-22
2021/05/08 04:24:47;;;;;;;15.50;8.57;;;;;;;16.78;61.11;99702.22;5028262;28;20402;-22
2021/05/08 04:27:13;;;;;;;12.75;8.63;;;;;;;16.91;60.96;99703.59;5028455;28;20087;-22
2021/05/08 04:29:38;;;;;;;12.35;7.55;;;;;;;16.72;61.46;99719.44;5027982;28;20442;-22
2021/05/08 04:32:04;;;;;;;13.82;8.10;;;;;;;16.55;62.17;99717.00;5027763;28;20033;-22
2021/05/08 04:34:30;;;;;;;10.63;7.65;;;;;;;16.57;62.65;99719.41;5027950;28;21107;-21
2021/05/08 04:36:55;;;;;;;16.75;7.93;;;;;;;16.59;62.26;99719.97;5027890;28;20037;-19
2021/05/08 04:39:20;;;;;;;9.73;7.30;;;;;;;16.18;63.04;99706.41;5027839;28;20032;-22
2021/05/08 04:41:46;;;;;;;12.23;6.97;;;;;;;16.20;63.68;99733.84;5027862;28;20406;-22
2021/05/08 04:44:11;;;;;;;10.32;6.20;;;;;;;15.98;64.05;99732.19;5027514;28;20034;-22
2021/05/08 04:46:37;;;;;;;10.73;5.68;;;;;;;15.88;63.34;99716.00;5027558;28;20037;-22
2021/05/08 04:49:03;;;;;;;11.65;6.38;;;;;;;16.33;62.57;99733.38;5027959;28;20044;-22
2021/05/08 04:51:28;;;;;;;25.38;6.82;;;;;;;16.46;62.21;99732.84;5027633;28;20441;-22
2021/05/08 04:53:54;;;;;;;13.40;6.65;;;;;;;16.30;61.32;99731.19;5027571;28;20021;-22
2021/05/08 04:56:19;;;;;;;14.93;6.05;;;;;;;16.24;61.81;99743.03;5027436;28;20033;-22
2021/05/08 04:58:45;;;;;;;12.02;6.15;;;;;;;16.35;61.14;99714.28;5027757;28;20822;-22
2021/05/08 05:01:10;;;;;;;9.25;5.60;;;;;;;16.28;59.17;99733.34;5027433;28;20064;-22
2021/05/08 05:03:36;;;;;;;12.98;6.57;;;;;;;16.54;59.03;99746.88;5027709;28;20030;-21
2021/05/08 05:06:03;;;;;;;12.13;6.40;;;;;;;16.47;56.58;99734.47;5027734;28;20029;-22
2021/05/08 05:08:28;;;;;;;12.63;7.00;;;;;;;16.53;56.30;99745.25;5027256;28;20044;-21
2021/05/08 05:10:55;;;;;;;11.70;6.70;;;;;;;16.62;56.28;99760.63;5027588;28;20029;-23
2021/05/08 05:13:21;;;;;;;13.90;7.50;;;;;;;16.68;55.92;99756.84;5027631;28;20033;-23
2021/05/08 05:15:47;;;;;;;13.48;8.07;;;;;;;16.80;54.91;99767.38;5027464;28;20056;-22
2021/05/08 05:18:12;;;;;;;9.73;6.97;;;;;;;16.90;55.52;99779.25;5027693;28;20421;-23
2021/05/08 05:20:39;;;;;;;12.43;7.15;;;;;;;16.93;55.05;99770.66;5027607;28;20037;-24
2021/05/08 05:23:05;;;;;;;15.35;7.57;;;;;;;17.15;54.52;99794.66;5027706;28;20026;-24
2021/05/08 05:25:30;;;;;;;11.82;7.38;;;;;;;17.25;54.49;99795.47;5027499;28;20037;-24
2021/05/08 05:27:55;;;;;;;10.10;7.45;;;;;;;17.24;53.98;99810.03;5027400;28;20486;-24
2021/05/08 05:30:22;;;;;;;9.95;7.50;;;;;;;17.23;53.75;99815.69;5026940;28;20037;-23
2021/05/08 05:32:47;;;;;;;11.38;6.47;;;;;;;17.32;53.08;99827.53;5027157;28;20065;-23
2021/05/08 05:35:13;;;;;;;13.57;6.63;;;;;;;17.39;52.41;99824.59;5027347;28;20473;-24
2021/05/08 05:37:38;;;;;;;10.25;6.55;;;;;;;17.46;52.68;99833.19;5027281;28;20039;-24
2021/05/08 05:40:04;;;;;;;9.15;6.50;;;;;;;17.45;53.17;99826.19;5027738;28;20401;-23
2021/05/08 05:42:30;;;;;;;12.73;7.18;;;;;;;17.54;52.77;99838.03;5027375;28;20033;-24
2021/05/08 05:44:55;;;;;;;10.25;7.10;;;;;;;17.75;52.93;99840.72;5027242;28;20107;-23
2021/05/08 05:47:21;;;;;;;12.68;6.10;;;;;;;17.49;51.73;99821.88;5027408;28;20037;-23
2021/05/08 05:49:50;;;;;;;13.10;7.18;;;;;;;17.45;53.09;99834.28;5027088;28;20545;-24
2021/05/08 05:52:16;;;;;;;11.25;6.72;;;;;;;17.41;52.15;99841.31;5028672;28;20032;-23
2021/05/08 05:54:43;;;;;;;9.65;5.95;;;;;;;17.13;52.31;99827.25;5030981;28;20034;-24
2021/05/08 05:57:09;;;;;;;13.10;5.55;;;;;;;17.21;51.88;99832.13;5030945;28;20030;-23
2021/05/08 05:59:34;;;;;;;16.63;7.03;;;;;;;17.58;51.75;99849.09;5030732;28;20080;-25
2021/05/08 06:01:59;;;;;;;13.52;7.18;;;;;;;17.59;51.45;99848.84;5031006;28;20409;-24
2021/05/08 06:04:25;;;;;;;12.85;7.45;;;;;;;17.62;52.22;99853.69;5030839;28;20029;-21
2021/05/08 06:06:50;;;;;;;12.10;7.13;;;;;;;17.81;52.10;99851.22;5031085;28;20857;-23
2021/05/08 06:09:16;;;;;;;11.70;7.13;;;;;;;17.56;52.14;99852.06;5030710;28;20052;-23
2021/05/08 06:11:41;;;;;;;14.57;7.40;;;;;;;17.64;52.30;99851.53;5030580;28;20520;-22
2021/05/08 06:14:07;;;;;;;9.85;5.93;;;;;;;17.59;51.92;99856.94;5030352;28;20099;-22
2021/05/08 06:16:32;;;;;;;20.73;6.75;;;;;;;17.22;52.01;99849.91;5030387;28;20044;-21
2021/05/08 06:18:58;;;;;;;15.80;7.28;;;;;;;17.40;51.67;99869.31;5030556;28;20033;-21
2021/05/08 06:21:23;;;;;;;15.40;6.90;;;;;;;17.33;52.58;99861.50;5030510;28;20500;-21
2021/05/08 06:23:49;;;;;;;10.68;5.63;;;;;;;17.35;51.64;99872.03;5030391;28;20036;-21
2021/05/08 06:26:14;;;;;;;12.27;6.65;;;;;;;17.17;51.76;99878.72;5030017;28;20032;-21
2021/05/08 06:28:40;;;;;;;13.65;6.43;;;;;;;17.33;52.08;99879.56;5030660;28;20034;-21
2021/05/08 06:31:05;;;;;;;11.93;6.28;;;;;;;17.57;52.05;99875.25;5030185;28;20456;-21
2021/05/08 06:33:30;;;;;;;9.15;6.88;;;;;;;17.25;52.30;99873.63;5030243;28;20033;-21
2021/05/08 06:35:56;;;;;;;14.60;6.25;;;;;;;17.36;51.22;99881.72;5030239;28;20029;-21
2021/05/08 06:38:22;;;;;;;14.02;6.25;;;;;;;17.20;51.71;99895.19;5030249;28;20044;-21
2021/05/08 06:40:48;;;;;;;9.32;5.82;;;;;;;17.54;51.86;99889.28;5030211;28;20451;-23
2021/05/08 06:43:13;;;;;;;13.38;6.13;;;;;;;18.01;51.56;99892.78;5030241;28;20869;-23
2021/05/08 06:45:39;;;;;;;13.90;7.22;;;;;;;18.50;51.20;99872.41;5029963;28;20033;-22
2021/05/08 06:48:07;;;;;;;15.10;6.22;;;;;;;18.53;48.57;99885.34;5029988;28;20080;-22
2021/05/08 06:50:32;;;;;;;10.65;6.38;;;;;;;18.49;49.70;99906.72;5029541;28;20060;-22
2021/05/08 06:53:00;;;;;;;26.10;13.38;;;;;;;18.70;49.30;99901.25;5029851;28;20050;-23
2021/05/08 06:55:25;;;;;;;11.52;6.10;;;;;;;18.86;49.47;99897.41;5029656;28;20102;-22
2021/05/08 06:57:51;;;;;;;10.73;6.18;;;;;;;19.04;48.37;99910.28;5029597;28;20397;-21
2021/05/08 07:00:17;;;;;;;7.90;5.22;;;;;;;18.41;48.17;99901.88;5029765;28;20033;-21
2021/05/08 07:02:42;;;;;;;8.95;4.97;;;;;;;18.70;48.44;99920.94;5029273;28;20025;-21
2021/05/08 07:05:08;;;;;;;7.32;4.03;;;;;;;18.45;47.19;99924.56;5029718;28;20040;-21
2021/05/08 07:07:34;;;;;;;9.55;5.05;;;;;;;18.41;47.68;99924.28;5029574;28;20456;-21
2021/05/08 07:09:59;;;;;;;5.57;3.97;;;;;;;18.52;46.82;99929.66;5029963;28;20041;-21
2021/05/08 07:12:25;;;;;;;8.35;4.90;;;;;;;18.33;48.27;99932.94;5029158;28;20029;-22
2021/05/08 07:14:50;;;;;;;7.45;3.33;;;;;;;18.11;47.21;99929.75;5029644;28;20056;-21
2021/05/08 07:17:16;;;;;;;10.27;5.00;;;;;;;18.34;47.81;99929.16;5029405;28;20030;-21
2021/05/08 07:19:41;;;;;;;8.40;4.85;;;;;;;18.98;46.94;99926.78;5029978;28;20104;-21
2021/05/08 07:22:06;;;;;;;7.18;4.72;;;;;;;19.43;46.10;99933.00;5029573;28;20040;-23
2021/05/08 07:24:32;;;;;;;6.00;3.70;;;;;;;19.88;43.65;99939.22;5029352;28;20037;-21
2021/05/08 07:26:58;;;;;;;9.88;5.10;;;;;;;19.64;46.13;99941.81;5028169;28;20037;-21
2021/05/08 07:29:26;;;;;;;15.02;4.85;;;;;;;19.57;44.29;99944.00;5029165;28;20041;-22
2021/05/08 07:31:51;;;;;;;9.65;3.88;;;;;;;19.21;44.70;99945.06;5029279;28;20429;-21
2021/05/08 07:34:17;;;;;;;5.22;2.88;;;;;;;19.54;43.10;99953.50;5028919;28;20033;-21
2021/05/08 07:36:42;;;;;;;9.68;4.65;;;;;;;19.37;43.34;99937.66;5029337;28;20033;-21
2021/05/08 07:39:08;;;;;;;5.57;3.53;;;;;;;19.33;43.36;99949.28;5027688;28;20028;-23
2021/05/08 07:41:33;;;;;;;8.32;3.58;;;;;;;18.70;44.10;99915.53;5028947;28;20053;-22
2021/05/08 07:43:59;;;;;;;8.45;4.07;;;;;;;18.47;45.80;99927.78;5028735;28;20053;-21
2021/05/08 07:46:24;;;;;;;9.15;4.43;;;;;;;19.02;44.95;99938.66;5028860;28;20025;-21
2021/05/08 07:48:50;;;;;;;6.38;4.10;;;;;;;19.19;44.47;99938.31;5028983;28;20036;-21
2021/05/08 07:51:16;;;;;;;6.32;3.53;;;;;;;19.00;43.49;99957.03;5028690;28;20061;-21
2021/05/08 07:53:41;;;;;;;13.07;4.55;;;;;;;19.11;43.91;99966.72;5029043;28;20048;-21
2021/05/08 07:56:06;;;;;;;7.70;3.85;;;;;;;19.00;43.80;99959.75;5028623;28;20037;-21
2021/05/08 07:58:32;;;;;;;10.40;4.95;;;;;;;19.12;45.28;99944.00;5028448;28;20033;-20
2021/05/08 08:00:57;;;;;;;11.38;4.80;;;;;;;19.11;45.65;99972.13;5029173;28;20034;-20
2021/05/08 08:03:23;;;;;;;13.57;5.38;;;;;;;18.71;46.09;99963.06;5028829;28;20231;-21
2021/05/08 08:05:48;;;;;;;9.65;4.50;;;;;;;18.70;45.70;99968.75;5028671;28;20025;-21
2021/05/08 08:08:14;;;;;;;8.73;4.53;;;;;;;18.57;46.16;99954.75;5028282;28;20063;-21
2021/05/08 08:10:39;;;;;;;8.80;4.45;;;;;;;18.96;45.28;99953.28;5028425;28;20406;-21
2021/05/08 08:13:05;;;;;;;11.02;4.88;;;;;;;19.01;44.23;99964.06;5028229;28;20025;-21
2021/05/08 08:15:30;;;;;;;9.30;4.50;;;;;;;19.16;44.84;99961.28;5027533;28;20083;-21
2021/05/08 08:17:56;;;;;;;8.77;4.82;;;;;;;19.97;44.50;99964.56;5028453;28;20110;-22
2021/05/08 08:20:21;;;;;;;9.05;5.05;;;;;;;20.36;44.32;99952.03;5027986;28;20037;-21
2021/05/08 08:22:47;;;;;;;20.75;6.80;;;;;;;20.20;44.62;99975.72;5028322;28;20508;-21
2021/05/08 08:25:13;;;;;;;7.40;4.38;;;;;;;20.17;43.34;99974.41;5028116;28;20383;-21
2021/05/08 08:27:39;;;;;;;13.82;5.63;;;;;;;20.02;44.96;99983.47;5028138;28;20082;-22
2021/05/08 08:30:05;;;;;;;10.00;5.25;;;;;;;19.39;43.99;99967.09;5028238;28;20033;-22
2021/05/08 08:32:31;;;;;;;11.73;5.80;;;;;;;19.24;44.79;99979.63;5028082;28;20036;-21
2021/05/08 08:34:56;;;;;;;9.30;4.80;;;;;;;19.06;45.79;99972.16;5028204;28;20029;-21
2021/05/08 08:37:22;;;;;;;10.25;5.75;;;;;;;19.48;46.10;99985.16;5028295;28;20068;-19
2021/05/08 08:39:47;;;;;;;8.02;5.22;;;;;;;19.90;43.17;99969.50;5028318;28;20037;-22
2021/05/08 08:42:13;;;;;;;14.27;5.43;;;;;;;20.16;44.93;99977.38;5027565;28;20416;-21
2021/05/08 08:44:39;;;;;;;11.23;5.78;;;;;;;20.82;43.25;99978.63;5028016;28;20033;-21
2021/05/08 08:47:05;;;;;;;12.05;6.03;;;;;;;19.96;43.52;99954.00;5027798;28;20075;-21
2021/05/08 08:49:31;;;;;;;7.25;5.32;;;;;;;19.74;43.97;99976.94;5026411;28;20050;-21
2021/05/08 08:51:56;;;;;;;10.25;5.28;;;;;;;19.34;44.73;99977.97;5010213;28;20033;-21
2021/05/08 08:54:22;;;;;;;14.63;6.05;;;;;;;19.35;45.11;99968.75;5027548;28;20029;-21
2021/05/08 08:56:49;;;;;;;9.48;5.75;;;;;;;19.45;44.36;99965.97;5027608;28;20029;-21
2021/05/08 09:01:41;;;;;;;9.85;5.97;;;;;;;19.87;44.92;99980.88;5027904;28;20033;-22
2021/05/08 09:04:09;;;;;;;8.85;4.90;;;;;;;20.43;42.74;99983.09;5027773;28;20033;-21
2021/05/08 09:06:34;;;;;;;8.07;4.95;;;;;;;19.90;42.52;99983.03;5027365;28;20056;-21
2021/05/08 09:09:00;;;;;;;10.20;4.90;;;;;;;19.98;42.66;99990.53;5027641;28;20766;-21
2021/05/08 09:11:25;;;;;;;8.30;4.75;;;;;;;20.17;42.27;99973.59;5026443;28;20504;-21
2021/05/08 09:14:14;;;;;;;14.68;6.53;;;;;;;20.22;42.36;99981.66;5026549;28;20120;-21
2021/05/08 09:17:05;;;;;;;11.18;5.35;;;;;;;20.21;42.96;99970.03;5027633;28;20112;-21
2021/05/08 09:19:30;;;;;;;7.85;4.75;;;;;;;19.80;42.27;99969.59;5026342;28;20038;-21
2021/05/08 09:21:57;;;;;;;6.85;5.00;;;;;;;20.29;41.32;99974.03;5027827;28;20033;-22
2021/05/08 09:24:22;;;;;;;11.63;5.30;;;;;;;19.82;42.71;99991.75;5026390;28;20091;-22
2021/05/08 09:26:52;;;;;;;9.05;5.00;;;;;;;19.63;43.07;99976.13;5030152;28;20025;-21
2021/05/08 09:29:19;;;;;;;8.65;5.70;;;;;;;20.06;42.69;99984.53;5031372;28;20029;-21
2021/05/08 09:31:55;;;;;;;7.15;4.60;;;;;;;20.05;42.72;99988.31;5031465;28;20036;-21
2021/05/08 09:34:20;;;;;;;6.90;4.00;;;;;;;20.26;41.22;99988.13;5031394;28;20060;-21
2021/05/08 09:36:50;;;;;;;8.10;4.45;;;;;;;20.41;41.63;99982.56;5031540;28;20481;-21
2021/05/08 09:39:32;;;;;;;9.40;5.55;;;;;;;20.47;41.32;99967.88;5031325;28;20116;-21
2021/05/08 09:41:57;;;;;;;8.82;4.65;;;;;;;20.45;41.57;99997.16;5031272;28;20026;-21
2021/05/08 09:44:23;;;;;;;10.13;5.38;;;;;;;20.61;42.02;99999.72;5031120;28;20068;-21
2021/05/08 09:46:48;;;;;;;10.18;4.72;;;;;;;20.40;41.93;99972.00;5031176;28;20464;-21
2021/05/08 09:49:15;;;;;;;6.75;4.97;;;;;;;20.18;42.18;99975.19;5031005;28;20501;-22
2021/05/08 09:51:40;;;;;;;8.93;5.18;;;;;;;20.29;42.36;99976.75;5031256;28;20037;-22
2021/05/08 09:54:08;;;;;;;7.57;4.78;;;;;;;20.45;41.90;99988.19;5031156;28;20796;-21
2021/05/08 09:56:46;;;;;;;8.45;4.75;;;;;;;20.52;40.86;99991.41;5030819;28;20025;-22
2021/05/08 09:59:32;;;;;;;;;;;;;;;20.32;42.20;99991.59;5031352;28;20394;-21
2021/05/08 10:02:04;;;;;;;6.28;3.67;;;;;;;20.51;41.93;99983.53;5030966;28;19949;-21
2021/05/08 10:04:57;;;;;;;8.90;5.57;;;;;;;21.06;43.23;99978.59;5031128;28;20033;-21
2021/05/08 10:07:28;;;;;;;9.35;4.97;;;;;;;21.64;40.74;99989.22;5030939;28;20857;-21
2021/05/08 10:09:57;;;;;;;6.82;4.78;;;;;;;21.36;42.02;99995.56;5030943;28;20132;-22
2021/05/08 10:12:24;;;;;;;8.40;4.55;;;;;;;21.39;41.82;99986.84;5030593;28;20072;-21
2021/05/08 10:14:51;;;;;;;7.40;4.45;;;;;;;21.55;39.00;99980.13;5030487;28;20452;-21
2021/05/08 10:17:19;;;;;;;7.40;4.20;;;;;;;21.73;38.96;100007.56;5030688;28;20485;-21
2021/05/08 10:19:46;;;;;;;6.88;4.70;;;;;;;22.04;38.73;99997.00;5030818;28;20631;-22
2021/05/08 10:22:12;;;;;;;6.20;5.20;;;;;;;22.17;41.36;99992.72;5030067;28;20409;-21
2021/05/08 10:24:39;;;;;;;8.07;4.95;;;;;;;21.28;40.79;100003.25;5030629;28;20057;-22
2021/05/08 10:27:05;;;;;;;8.00;4.17;;;;;;;21.08;40.64;99998.09;5030480;28;20445;-21
2021/05/08 10:29:32;;;;;;;8.20;5.35;;;;;;;20.56;40.73;100008.69;5030543;28;20271;-21
2021/05/08 10:32:01;;;;;;;7.30;4.03;;;;;;;19.90;42.35;100007.41;5030563;28;20026;-21
2021/05/08 10:34:33;;;;;;;7.55;4.82;;;;;;;19.82;42.83;99994.47;5028707;28;20029;-21
2021/05/08 10:37:09;;;;;;;7.78;4.70;;;;;;;20.13;42.52;99988.81;5029759;28;20029;-21
2021/05/08 10:39:48;;;;;;;8.18;4.45;;;;;;;19.90;42.79;100011.97;5029975;28;20044;-21
2021/05/08 10:42:39;;;;;;;5.65;3.97;;;;;;;19.51;43.48;100016.25;5029924;28;20437;-21
2021/05/08 10:45:05;;;;;;;7.20;4.28;;;;;;;19.25;43.53;100013.69;5029947;28;20116;-21
2021/05/08 10:47:55;;;;;;;9.70;4.22;;;;;;;18.84;44.54;100013.84;5030241;28;20112;-22
2021/05/08 10:50:24;;;;;;;8.27;4.97;;;;;;;18.65;44.38;100010.09;5029981;28;20123;-21
2021/05/08 10:52:58;;;;;;;7.80;4.28;;;;;;;19.05;45.04;100005.69;5030226;28;20034;-19
2021/05/08 10:55:23;;;;;;;7.18;4.63;;;;;;;19.15;43.73;100008.34;5029798;28;20124;-21
2021/05/08 10:58:18;;;;;;;5.40;4.05;;;;;;;19.20;44.24;100015.59;5030141;28;20868;-21
2021/05/08 11:00:44;;;;;;;6.63;3.55;;;;;;;19.88;42.24;100033.94;5029851;28;20030;-21
2021/05/08 11:03:10;;;;;;;5.63;2.72;;;;;;;19.64;41.72;100026.47;5030032;28;20022;-22
2021/05/08 11:05:35;;;;;;;9.80;3.92;;;;;;;20.15;42.38;100010.97;5029752;28;20509;-21
2021/05/08 11:08:26;;;;;;;6.95;3.63;;;;;;;20.87;40.58;100033.56;5029540;28;20034;-21
2021/05/08 11:11:12;;;;;;;6.45;3.50;;;;;;;21.06;40.25;100030.13;5029711;28;20029;-21
2021/05/08 11:13:43;;;;;;;6.05;3.92;;;;;;;21.28;40.17;100024.94;5029256;28;20080;-21
2021/05/08 11:16:11;;;;;;;5.10;3.50;;;;;;;21.87;38.53;100035.56;5029495;28;20029;-22
2021/05/08 11:18:41;;;;;;;7.18;4.28;;;;;;;21.79;39.01;100038.94;5029389;28;20107;-21
2021/05/08 11:21:12;;;;;;;7.38;3.53;;;;;;;22.49;38.14;100045.44;5029586;28;20485;-22
2021/05/08 11:24:01;;;;;;;6.68;4.53;;;;;;;23.02;37.20;100045.03;5029606;28;20029;-21
2021/05/08 11:26:29;;;;;;;5.88;4.03;;;;;;;23.84;34.59;100037.84;5029136;28;20042;-21